This is the latest recevied weather packets stored in our database for station/object K7DC. If no packets are shown the sender has not sent any weather packets the latest 10 day(s).
| Time | Temp. | Humidity | Pressure | Rain* | Wind** | Luminosity | Snow |
|---|---|---|---|---|---|---|---|
| 1788382666 | 23.33° C | 75% | 1017 hPa | 1.27 mm | - | 109 W/m² | - |
| 1788382362 | 23.89° C | 74% | 1017.1 hPa | 0 mm | - | 89 W/m² | - |
| 1788382057 | 24.44° C | 72% | 1016.9 hPa | 0 mm | - | 84 W/m² | - |
| 1788381752 | 25.56° C | 66% | 1017.2 hPa | 0 mm | - | 80 W/m² | - |
| 1788381452 | 27.22° C | 61% | 1016.9 hPa | 0 mm | - | 82 W/m² | - |
| 1788381147 | 31.67° C | 56% | 1017 hPa | 0 mm | - | 71 W/m² | - |
| 1788380842 | 32.78° C | 49% | 1016.7 hPa | 0 mm | - | 61 W/m² | - |
| 1788380539 | 33.33° C | 43% | 1016.6 hPa | 0 mm | - | 58 W/m² | - |
| 1788380235 | 33.89° C | 40% | 1016.6 hPa | 0 mm | - | 39 W/m² | - |
| 1788379934 | 33.89° C | 39% | 1016.5 hPa | 0 mm | - | 42 W/m² | - |
| 1788379629 | 34.44° C | 39% | 1016.6 hPa | 0 mm | - | 54 W/m² | - |
| 1788379325 | 35° C | 38% | 1016.4 hPa | 0 mm | - | 68 W/m² | - |
| 1788379020 | 36.11° C | 36% | 1016.6 hPa | 0 mm | - | 95 W/m² | - |
| 1788378720 | 37.22° C | 35% | 1016.6 hPa | 0 mm | - | 184 W/m² | - |
| 1788378418 | 37.78° C | 34% | 1017 hPa | 0 mm | - | 244 W/m² | - |
| 1788378114 | 38.33° C | 33% | 1016.5 hPa | 0 mm | - | 295 W/m² | - |
| 1788377810 | 36.67° C | 35% | 1016.8 hPa | 0 mm | - | 1111 W/m² | - |
| 1788377505 | 36.67° C | 36% | 1016.9 hPa | 0 mm | - | 781 W/m² | - |
| 1788377203 | 36.67° C | 35% | 1016.8 hPa | 0 mm | - | 1063 W/m² | - |
| 1788376902 | 37.22° C | 35% | 1017 hPa | 0 mm | - | 1166 W/m² | - |
| 1788376597 | 37.78° C | 34% | 1017.1 hPa | 0 mm | - | 604 W/m² | - |
| 1788376297 | 37.78° C | 34% | 1017 hPa | 0 mm | - | 383 W/m² | - |
| 1788375993 | 36.67° C | 35% | 1017.4 hPa | 0 mm | - | 1030 W/m² | - |
| 1788375688 | 35.56° C | 37% | 1017.6 hPa | 0 mm | - | 1023 W/m² | - |
| 1788375384 | 35° C | 39% | 1017.6 hPa | 0 mm | - | 288 W/m² | - |
* Rain latest hour (hover to see other rain measurements)
** Current wind speed in m/s (hover to see current wind gust speed)